CYG weather

Corryong Airport
Victoria, Australia

Public forecast

Using degrees Celsius for public forecast. Weather courtesy of forecast.io.

Closest aviation weather report (METAR) to Corryong Airport

Closest report is Albury Airport, 45.6 nm (84.5 km) W. Retrieved 2020/01/23 16:00 UTC (15 minutes ago):

YMAY 231600Z AUTO 31005KT 9999 // NCD 15/07 Q1008

Closest aviation forecast (TAF) to Corryong Airport

Forecast is more than 12 hours old.

Closest forecast is Wagga Wagga City Airport, 64.5 nm (119.4 km) NNW. Retrieved 2018/05/25 18:03 UTC (2 years ago):

TAF YSWG 251649Z 2518/2608 07008KT CAVOK